Time;durP1;ratioP1;P1;durP2;ratioP2;P2;SDS_P1;SDS_P2;PMS_P1;PMS_P2;Temp;Humidity;BMP_temperature;BMP_pressure;BME280_temperature;BME280_humidity;BME280_pressure;Samples;Min_cycle;Max_cycle;Signal;HPM_P1;HPM_P2
2021/06/03 00:00:58;;;;;;;6.43;5.10;;;;;;;13.85;78.85;98423.16;5003175;28;20029;-82
2021/06/03 00:03:27;;;;;;;7.80;4.90;;;;;;;13.85;75.97;98416.84;4986131;28;20022;-83
2021/06/03 00:05:57;;;;;;;5.47;4.95;;;;;;;13.78;76.69;98425.50;5000887;28;20033;-82
2021/06/03 00:08:25;;;;;;;6.38;4.88;;;;;;;13.74;78.67;98427.25;4994277;28;20553;-81
2021/06/03 00:11:04;;;;;;;5.38;4.25;;;;;;;13.64;77.33;98416.44;4977471;28;20034;-83
2021/06/03 00:13:32;;;;;;;7.22;5.32;;;;;;;13.69;79.54;98432.03;4995212;28;20036;-84
2021/06/03 00:15:59;;;;;;;6.57;4.63;;;;;;;13.58;78.96;98422.31;4987077;28;20099;-83
2021/06/03 00:18:25;;;;;;;4.50;3.83;;;;;;;13.45;79.95;98421.19;4993292;28;20042;-84
2021/06/03 00:20:51;;;;;;;4.15;3.53;;;;;;;13.40;79.88;98415.78;4988014;28;20563;-83
2021/06/03 00:23:16;;;;;;;3.65;2.67;;;;;;;13.38;78.84;98423.50;4984516;28;20038;-84
2021/06/03 00:25:42;;;;;;;4.10;3.22;;;;;;;13.21;77.84;98417.75;5000620;28;20422;-83
2021/06/03 00:28:08;;;;;;;6.00;2.92;;;;;;;13.19;78.54;98419.97;4994473;28;20435;-82
2021/06/03 00:30:34;;;;;;;5.85;3.67;;;;;;;13.22;78.57;98424.88;4976634;28;20033;-84
2021/06/03 00:33:00;;;;;;;8.98;4.28;;;;;;;13.22;77.75;98433.13;4990264;28;20396;-80
2021/06/03 00:35:25;;;;;;;8.30;3.90;;;;;;;13.15;78.09;98418.97;5012468;28;20091;-82
2021/06/03 00:37:51;;;;;;;7.00;4.13;;;;;;;13.23;77.84;98432.81;5012402;28;20089;-81
2021/06/03 00:40:19;;;;;;;4.78;4.20;;;;;;;13.26;77.85;98431.41;5001100;28;20171;-82
2021/06/03 00:42:44;;;;;;;5.70;4.72;;;;;;;13.19;78.91;98417.22;5013474;28;20026;-82
2021/06/03 00:45:13;;;;;;;3.05;2.78;;;;;;;13.20;79.47;98421.63;5007764;28;20095;-81
2021/06/03 00:47:39;;;;;;;5.80;3.17;;;;;;;13.19;80.55;98425.47;4981810;28;20025;-81
2021/06/03 00:50:08;;;;;;;5.55;3.47;;;;;;;13.06;79.34;98423.50;5001040;28;20049;-81
2021/06/03 00:52:34;;;;;;;4.95;3.30;;;;;;;12.98;79.42;98426.91;5002096;28;20030;-81
2021/06/03 00:54:59;;;;;;;6.95;4.50;;;;;;;13.04;80.96;98431.19;4986292;28;20021;-85
2021/06/03 00:57:24;;;;;;;5.10;4.07;;;;;;;13.04;79.89;98415.53;5003324;28;20025;-83
2021/06/03 00:59:50;;;;;;;4.45;3.55;;;;;;;13.21;81.50;98428.75;4999686;28;20030;-81
2021/06/03 01:02:15;;;;;;;5.45;3.40;;;;;;;13.18;80.51;98426.63;4998732;28;20058;-81
2021/06/03 01:04:41;;;;;;;7.93;4.38;;;;;;;13.28;79.22;98432.72;4976638;28;20099;-81
2021/06/03 01:07:07;;;;;;;4.53;3.83;;;;;;;13.14;79.60;98429.13;5004556;28;20021;-82
2021/06/03 01:09:47;;;;;;;7.60;5.05;;;;;;;13.13;80.98;98433.00;5003290;28;20068;-83
2021/06/03 01:12:21;;;;;;;5.22;4.50;;;;;;;13.16;81.08;98431.56;5003583;28;20132;-84
2021/06/03 01:14:52;;;;;;;8.32;4.45;;;;;;;13.19;82.10;98434.53;5005499;28;20044;-84
2021/06/03 01:17:21;;;;;;;6.30;4.45;;;;;;;13.18;81.87;98434.84;5015100;28;20026;-85
2021/06/03 01:19:48;;;;;;;6.30;3.88;;;;;;;13.06;83.30;98431.72;4989243;28;20030;-87
2021/06/03 01:22:13;;;;;;;6.05;4.35;;;;;;;12.94;83.02;98436.88;4981188;28;20026;-84
2021/06/03 01:24:42;;;;;;;6.35;3.95;;;;;;;12.82;82.58;98440.88;5003649;28;20030;-85
2021/06/03 01:27:14;;;;;;;6.35;4.72;;;;;;;12.89;85.20;98443.25;4987187;28;20068;-83
2021/06/03 01:29:54;;;;;;;5.75;4.00;;;;;;;12.79;83.89;98443.38;5001323;28;20034;-86
2021/06/03 01:32:21;;;;;;;6.38;4.38;;;;;;;12.85;82.41;98453.19;4991295;28;20030;-86
2021/06/03 01:34:47;;;;;;;5.28;4.25;;;;;;;12.84;83.95;98451.56;5001410;28;20023;-85
2021/06/03 01:37:13;;;;;;;7.95;4.55;;;;;;;12.79;84.19;98443.38;4987129;28;20039;-85
2021/06/03 01:39:42;;;;;;;5.53;3.60;;;;;;;12.84;82.50;98446.88;5008254;28;20028;-85
2021/06/03 01:42:08;;;;;;;6.47;4.07;;;;;;;12.77;82.19;98451.13;5007807;28;20018;-87
2021/06/03 01:44:34;;;;;;;7.43;4.65;;;;;;;12.71;82.13;98441.34;4984919;28;20057;-86
2021/06/03 01:47:01;;;;;;;5.53;3.78;;;;;;;12.83;84.45;98458.97;5001238;28;20042;-85
2021/06/03 01:49:27;;;;;;;4.13;3.47;;;;;;;12.70;83.32;98445.19;4990872;28;20037;-87
2021/06/03 01:51:53;;;;;;;4.65;4.25;;;;;;;12.64;84.37;98446.38;4987417;28;20113;-87
2021/06/03 01:54:20;;;;;;;11.07;3.67;;;;;;;12.57;84.21;98452.22;5007613;28;20036;-87
2021/06/03 01:56:47;;;;;;;5.07;3.90;;;;;;;12.44;84.47;98452.94;4981802;28;20041;-84
2021/06/03 01:59:14;;;;;;;6.28;4.40;;;;;;;12.44;83.93;98447.47;5016775;28;20030;-84
2021/06/03 02:01:39;;;;;;;6.05;4.35;;;;;;;12.26;84.56;98440.84;4999340;28;20105;-84
2021/06/03 02:04:04;;;;;;;4.35;3.88;;;;;;;12.28;84.60;98451.50;4990892;28;20030;-82
2021/06/03 02:06:30;;;;;;;4.82;4.18;;;;;;;12.36;84.15;98450.88;4975877;28;20030;-83
2021/06/03 02:08:55;;;;;;;4.88;4.30;;;;;;;12.33;85.78;98457.78;4984298;28;20037;-83
2021/06/03 02:11:23;;;;;;;5.93;4.43;;;;;;;12.11;85.88;98456.69;5002630;28;20034;-82
2021/06/03 02:13:55;;;;;;;6.10;4.00;;;;;;;11.99;85.36;98453.53;5006428;28;20403;-81
2021/06/03 02:16:24;;;;;;;5.47;4.55;;;;;;;11.96;85.68;98457.69;4993694;28;20029;-80
2021/06/03 02:18:58;;;;;;;6.85;4.40;;;;;;;11.97;86.43;98462.03;5007612;28;20034;-81
2021/06/03 02:21:25;;;;;;;6.35;4.65;;;;;;;12.08;86.16;98468.22;5005707;28;20072;-80
2021/06/03 02:23:51;;;;;;;6.07;4.15;;;;;;;12.00;86.25;98463.38;5000800;28;20431;-82
2021/06/03 02:26:17;;;;;;;6.18;4.25;;;;;;;11.99;86.04;98467.25;5000113;28;20080;-82
2021/06/03 02:28:44;;;;;;;4.95;4.40;;;;;;;12.05;85.59;98477.88;5006418;28;20532;-82
2021/06/03 02:31:11;;;;;;;4.35;3.95;;;;;;;12.05;86.86;98479.78;5005981;28;20038;-82
2021/06/03 02:33:37;;;;;;;5.65;4.82;;;;;;;12.04;85.91;98478.97;4996570;28;20062;-80
2021/06/03 02:36:03;;;;;;;6.80;4.47;;;;;;;11.99;86.73;98470.00;4999922;28;20383;-81
2021/06/03 02:38:31;;;;;;;7.43;4.70;;;;;;;11.94;86.92;98478.25;4999228;28;20034;-79
2021/06/03 02:41:04;;;;;;;5.85;3.92;;;;;;;11.88;87.55;98471.19;4982908;28;20448;-80
2021/06/03 02:43:29;;;;;;;4.68;4.20;;;;;;;11.89;87.59;98475.56;4981729;28;20520;-82
2021/06/03 02:45:55;;;;;;;6.88;6.18;;;;;;;11.98;87.21;98482.88;4980279;28;20053;-79
2021/06/03 02:48:21;;;;;;;6.05;4.93;;;;;;;12.10;87.30;98486.03;4997257;28;20029;-81
2021/06/03 02:50:47;;;;;;;5.00;4.32;;;;;;;12.11;87.11;98481.34;4986380;28;20443;-79
2021/06/03 02:53:13;;;;;;;7.40;4.45;;;;;;;12.11;85.77;98487.66;4977543;28;20026;-79
2021/06/03 02:55:39;;;;;;;6.10;4.68;;;;;;;12.14;86.80;98483.50;4991853;28;20396;-79
2021/06/03 02:58:05;;;;;;;7.82;4.75;;;;;;;12.09;86.94;98473.41;4993496;28;20034;-82
2021/06/03 03:00:33;;;;;;;8.27;5.10;;;;;;;12.13;86.84;98487.34;4981887;28;20451;-81
2021/06/03 03:03:00;;;;;;;7.03;4.22;;;;;;;12.15;85.72;98477.72;5014259;28;20033;-82
2021/06/03 03:05:25;;;;;;;6.90;4.82;;;;;;;12.17;85.55;98485.66;5022793;28;20017;-81
2021/06/03 03:07:51;;;;;;;5.03;4.53;;;;;;;12.35;85.25;98487.63;5009707;28;20117;-81
2021/06/03 03:10:25;;;;;;;5.15;4.70;;;;;;;12.32;85.51;98488.22;4980647;28;20037;-82
2021/06/03 03:12:51;;;;;;;4.82;4.22;;;;;;;12.34;86.03;98491.50;4991241;28;20026;-79
2021/06/03 03:15:18;;;;;;;7.68;5.55;;;;;;;12.21;87.62;98486.72;4999716;28;20056;-80
2021/06/03 03:17:44;;;;;;;7.43;4.75;;;;;;;12.00;88.16;98501.75;4991765;28;20512;-80
2021/06/03 03:20:11;;;;;;;7.82;5.00;;;;;;;11.98;88.65;98501.25;4994087;28;20037;-81
2021/06/03 03:22:40;;;;;;;8.00;4.35;;;;;;;11.93;88.77;98501.31;4998711;28;20056;-81
2021/06/03 03:25:08;;;;;;;6.07;4.55;;;;;;;11.93;88.91;98501.31;4997894;28;20030;-79
2021/06/03 03:27:33;;;;;;;5.65;4.22;;;;;;;11.90;88.98;98501.91;4991493;28;20034;-81
2021/06/03 03:29:59;;;;;;;6.50;5.40;;;;;;;11.80;88.72;98502.81;4993414;28;20041;-81
2021/06/03 03:32:24;;;;;;;6.30;4.50;;;;;;;11.78;88.59;98503.09;4998290;28;20112;-82
2021/06/03 03:34:50;;;;;;;4.57;4.13;;;;;;;11.75;89.98;98489.97;5008034;28;20041;-80
2021/06/03 03:37:15;;;;;;;7.22;4.55;;;;;;;11.73;90.29;98516.84;5002931;28;20041;-84
2021/06/03 03:39:41;;;;;;;6.38;4.50;;;;;;;11.80;90.35;98505.56;4991204;28;20117;-80
2021/06/03 03:42:07;;;;;;;6.10;4.40;;;;;;;11.99;89.60;98511.13;4975058;28;20041;-82
2021/06/03 03:44:32;;;;;;;8.48;4.13;;;;;;;12.21;88.25;98516.91;4979625;28;20503;-85
2021/06/03 03:46:58;;;;;;;7.43;4.63;;;;;;;12.12;88.36;98521.41;4989999;28;20077;-82
2021/06/03 03:49:23;;;;;;;7.15;4.47;;;;;;;12.10;88.79;98513.44;4998172;28;20067;-82
2021/06/03 03:51:49;;;;;;;4.88;4.35;;;;;;;12.20;87.66;98524.31;4982248;28;20081;-82
2021/06/03 03:54:14;;;;;;;4.35;3.95;;;;;;;12.35;87.20;98520.56;4980704;28;20392;-80
2021/06/03 03:56:40;;;;;;;6.45;3.97;;;;;;;12.25;87.30;98524.22;4989250;28;20116;-83
2021/06/03 03:59:05;;;;;;;5.65;4.28;;;;;;;12.17;88.62;98524.88;4999019;28;20104;-80
2021/06/03 04:01:31;;;;;;;7.10;4.65;;;;;;;12.37;86.65;98531.25;4997028;28;20499;-82
2021/06/03 04:03:57;;;;;;;6.93;3.95;;;;;;;12.63;85.42;98521.56;4982802;28;20177;-81
2021/06/03 04:06:22;;;;;;;7.55;4.00;;;;;;;12.93;82.99;98525.84;5019887;28;20018;-82
2021/06/03 04:08:48;;;;;;;7.13;4.07;;;;;;;13.25;82.57;98520.47;5020728;28;20042;-83
2021/06/03 04:11:14;;;;;;;6.40;3.92;;;;;;;13.49;80.21;98525.81;4993138;28;20403;-84
2021/06/03 04:13:39;;;;;;;7.82;4.53;;;;;;;13.38;81.04;98536.97;4998012;28;20030;-83
2021/06/03 04:16:05;;;;;;;9.05;3.97;;;;;;;13.69;80.75;98545.53;5000962;28;20387;-81
2021/06/03 04:18:31;;;;;;;7.13;3.85;;;;;;;14.12;78.69;98537.09;5007100;28;20391;-88
2021/06/03 04:20:57;;;;;;;11.27;3.78;;;;;;;14.40;76.29;98538.78;4982212;28;20037;-89
2021/06/03 04:23:22;;;;;;;4.07;3.67;;;;;;;14.87;73.71;98532.81;4989308;28;20059;-85
2021/06/03 04:25:48;;;;;;;5.13;4.00;;;;;;;15.34;70.70;98538.91;4996077;28;20022;-84
2021/06/03 04:28:13;;;;;;;7.93;3.67;;;;;;;15.83;68.66;98549.84;5012345;28;20097;-85
2021/06/03 04:30:41;;;;;;;4.68;4.00;;;;;;;15.97;69.49;98555.31;4989015;28;20037;-88
2021/06/03 04:33:08;;;;;;;7.32;3.67;;;;;;;16.43;67.57;98563.16;4981001;28;20030;-84
2021/06/03 04:35:37;;;;;;;7.95;4.05;;;;;;;16.11;68.39;98567.06;4996664;28;20077;-86
2021/06/03 04:38:03;;;;;;;6.22;4.45;;;;;;;16.20;69.08;98567.09;4990912;28;20121;-83
2021/06/03 04:40:29;;;;;;;8.20;4.78;;;;;;;15.76;69.19;98568.78;4987247;28;20037;-83
2021/06/03 04:42:57;;;;;;;11.02;5.28;;;;;;;15.80;68.26;98564.28;4985211;28;20041;-86
2021/06/03 04:45:24;;;;;;;6.25;4.25;;;;;;;15.33;69.19;98567.59;4983585;28;20046;-86
2021/06/03 04:47:51;;;;;;;8.07;5.22;;;;;;;15.14;70.74;98558.66;5003487;28;20046;-86
2021/06/03 04:50:19;;;;;;;6.50;4.97;;;;;;;15.45;69.43;98565.91;5005809;28;20061;-87
2021/06/03 04:52:52;;;;;;;9.02;5.07;;;;;;;15.28;70.01;98565.78;4989857;28;20080;-87
2021/06/03 04:55:21;;;;;;;7.65;6.50;;;;;;;15.06;70.79;98562.16;4995863;28;20049;-87
2021/06/03 04:57:47;;;;;;;7.82;5.47;;;;;;;15.15;70.64;98571.31;4985704;28;20026;-88
2021/06/03 05:00:18;;;;;;;8.82;5.32;;;;;;;15.19;73.23;98577.84;4991263;28;20026;-85
2021/06/03 05:02:45;;;;;;;7.75;4.75;;;;;;;14.84;72.36;98572.00;4986346;28;20105;-87
2021/06/03 05:05:11;;;;;;;9.52;6.63;;;;;;;15.05;70.60;98561.34;4984326;28;20026;-88
2021/06/03 05:07:38;;;;;;;7.20;4.72;;;;;;;15.20;69.96;98584.97;4985555;28;20105;-85
2021/06/03 05:10:05;;;;;;;8.30;5.25;;;;;;;15.17;70.06;98589.19;4992753;28;20034;-86
2021/06/03 05:12:31;;;;;;;9.35;5.22;;;;;;;15.18;70.58;98576.22;4990412;28;20019;-84
2021/06/03 05:14:56;;;;;;;12.30;5.07;;;;;;;14.83;72.10;98583.31;5007440;28;20049;-86
2021/06/03 05:17:23;;;;;;;12.93;6.13;;;;;;;15.08;71.22;98574.50;4992505;28;20044;-85
2021/06/03 05:19:48;;;;;;;11.82;5.60;;;;;;;15.29;71.42;98572.91;4995733;28;20084;-88
2021/06/03 05:22:14;;;;;;;6.25;5.28;;;;;;;15.40;70.39;98582.59;4995761;28;20740;-86
2021/06/03 05:24:39;;;;;;;8.10;5.25;;;;;;;15.46;71.15;98575.84;5013706;28;20030;-86
2021/06/03 05:27:06;;;;;;;7.80;5.32;;;;;;;15.55;68.67;98562.13;5006204;28;20124;-75
2021/06/03 05:29:34;;;;;;;6.68;4.90;;;;;;;15.67;70.72;98576.19;5007278;28;20368;-76
2021/06/03 05:32:00;;;;;;;7.07;4.95;;;;;;;15.21;70.97;98578.34;4998939;28;20045;-75
2021/06/03 05:34:33;;;;;;;8.80;5.47;;;;;;;15.32;71.49;98582.50;5007722;28;20033;-74
2021/06/03 05:36:58;;;;;;;15.02;5.57;;;;;;;15.54;68.70;98588.06;4993731;28;20034;-76
2021/06/03 05:39:24;;;;;;;6.20;5.35;;;;;;;15.87;67.98;98583.97;5001997;28;20578;-76
2021/06/03 05:41:50;;;;;;;8.32;6.43;;;;;;;15.92;67.27;98591.28;5006476;28;20022;-76
2021/06/03 05:44:15;;;;;;;6.22;4.93;;;;;;;15.74;67.30;98578.50;4994422;28;20034;-76
2021/06/03 05:46:41;;;;;;;7.40;5.47;;;;;;;16.07;66.74;98585.38;5012656;28;20125;-75
2021/06/03 05:49:08;;;;;;;8.13;5.40;;;;;;;16.52;65.83;98586.09;5016770;28;20091;-75
2021/06/03 05:51:35;;;;;;;7.40;5.18;;;;;;;16.31;67.31;98582.28;5017215;28;20033;-76
2021/06/03 05:54:01;;;;;;;14.95;6.72;;;;;;;16.49;65.50;98592.25;5022692;28;20621;-80
2021/06/03 05:56:26;;;;;;;11.18;5.45;;;;;;;16.50;65.11;98585.63;5016606;28;20033;-76
2021/06/03 05:58:53;;;;;;;6.68;4.90;;;;;;;16.38;65.78;98599.22;4999204;28;20141;-75
2021/06/03 06:01:19;;;;;;;10.57;5.15;;;;;;;16.62;66.19;98610.72;4994618;28;20053;-76
2021/06/03 06:06:26;;;;;;;10.60;6.05;;;;;;;16.61;66.77;98600.78;5012025;28;20120;-75
2021/06/03 06:08:56;;;;;;;10.07;6.47;;;;;;;16.19;67.33;98606.91;5011876;28;20049;-77
2021/06/03 06:11:24;;;;;;;8.68;6.03;;;;;;;16.30;67.98;98597.19;4994566;28;20156;-76
2021/06/03 06:13:50;;;;;;;12.15;5.22;;;;;;;16.68;65.74;98598.41;4994593;28;20032;-75
2021/06/03 06:16:16;;;;;;;10.05;5.82;;;;;;;16.69;65.38;98602.78;5011929;28;20101;-75
2021/06/03 06:18:45;;;;;;;12.02;5.82;;;;;;;17.10;63.95;98608.75;4994313;28;20038;-76
2021/06/03 06:21:14;;;;;;;7.45;6.00;;;;;;;16.97;64.65;98598.66;4994554;28;20088;-74
2021/06/03 06:23:39;;;;;;;12.55;6.07;;;;;;;17.44;63.00;98598.91;4994285;28;20030;-76
2021/06/03 06:26:07;;;;;;;7.00;6.00;;;;;;;17.63;62.48;98604.97;5012573;28;20041;-76
2021/06/03 06:28:32;;;;;;;8.00;4.93;;;;;;;18.01;61.21;98608.66;5013116;28;20033;-76
2021/06/03 06:30:58;;;;;;;6.88;5.40;;;;;;;18.13;59.34;98610.78;5012772;28;20022;-77
2021/06/03 06:33:23;;;;;;;7.35;5.40;;;;;;;18.00;59.51;98606.25;5012822;28;20502;-77
2021/06/03 06:35:50;;;;;;;5.75;5.15;;;;;;;18.27;59.93;98610.59;5013113;28;20407;-76
2021/06/03 06:38:21;;;;;;;8.20;5.60;;;;;;;17.60;62.50;98608.38;5011912;28;20174;-76
2021/06/03 06:40:47;;;;;;;8.52;5.95;;;;;;;17.22;63.51;98616.44;5016244;28;20022;-78
2021/06/03 06:43:13;;;;;;;9.60;5.00;;;;;;;17.27;64.51;98615.47;4993911;28;20033;-76
2021/06/03 06:45:39;;;;;;;15.55;6.38;;;;;;;17.95;60.29;98609.19;5012880;28;20046;-77
2021/06/03 06:48:07;;;;;;;14.50;6.78;;;;;;;18.45;58.32;98612.97;5011830;28;20054;-75
2021/06/03 06:50:33;;;;;;;12.07;7.65;;;;;;;18.25;59.74;98612.88;4999517;28;20488;-76
2021/06/03 06:52:59;;;;;;;8.70;6.15;;;;;;;18.11;59.20;98613.06;4991052;28;20506;-74
2021/06/03 06:55:25;;;;;;;8.95;6.25;;;;;;;17.83;60.22;98607.06;4977423;28;20030;-75
2021/06/03 06:57:53;;;;;;;13.13;6.18;;;;;;;17.91;59.61;98606.25;4997039;28;20399;-78
2021/06/03 07:00:20;;;;;;;7.78;5.65;;;;;;;17.83;61.28;98612.59;4977004;28;20029;-75
2021/06/03 07:02:45;;;;;;;12.35;5.20;;;;;;;18.15;59.63;98614.84;4973757;28;20053;-74
2021/06/03 07:05:12;;;;;;;8.32;6.47;;;;;;;18.23;60.17;98610.44;4973892;28;20057;-74
2021/06/03 07:07:38;;;;;;;7.68;6.20;;;;;;;18.61;57.26;98616.88;4974721;28;20041;-74
2021/06/03 07:10:06;;;;;;;14.27;5.13;;;;;;;18.73;57.60;98615.38;4972756;28;20030;-74
2021/06/03 07:12:31;;;;;;;9.38;5.38;;;;;;;18.85;56.16;98613.53;4991081;28;20076;-75
2021/06/03 07:14:57;;;;;;;7.40;5.70;;;;;;;18.60;58.47;98620.00;4991014;28;20030;-74
2021/06/03 07:17:22;;;;;;;6.28;5.18;;;;;;;18.50;58.57;98623.13;4991145;28;20030;-74
2021/06/03 07:19:47;;;;;;;9.00;4.78;;;;;;;18.59;57.45;98601.72;4973438;28;20061;-76
2021/06/03 07:22:13;;;;;;;6.43;5.32;;;;;;;18.76;58.62;98607.22;4973237;28;20383;-75
2021/06/03 07:24:40;;;;;;;10.50;5.40;;;;;;;19.41;55.39;98614.22;4973586;28;20030;-74
2021/06/03 07:27:07;;;;;;;9.15;4.88;;;;;;;19.78;53.57;98599.41;4991072;28;20108;-75
2021/06/03 07:29:33;;;;;;;13.00;5.72;;;;;;;20.03;52.39;98609.47;4973852;28;20534;-74
2021/06/03 07:31:58;;;;;;;7.07;4.53;;;;;;;19.67;54.02;98615.63;4990637;28;20038;-74
2021/06/03 07:34:25;;;;;;;6.15;5.10;;;;;;;19.18;56.12;98611.72;4991320;28;20034;-75
2021/06/03 07:36:50;;;;;;;9.38;5.00;;;;;;;19.89;53.22;98616.47;4992980;28;20517;-76
2021/06/03 07:39:16;;;;;;;6.45;4.32;;;;;;;20.61;52.14;98605.59;4981013;28;20026;-77
2021/06/03 07:41:41;;;;;;;8.88;5.15;;;;;;;21.15;49.51;98614.59;4980203;28;20026;-75
2021/06/03 07:44:06;;;;;;;5.82;4.15;;;;;;;21.60;49.18;98620.00;4990931;28;20018;-76
2021/06/03 07:46:33;;;;;;;7.28;4.40;;;;;;;21.22;49.76;98614.81;4990371;28;20046;-74
2021/06/03 07:48:59;;;;;;;6.53;4.35;;;;;;;21.59;49.21;98606.41;4972956;28;20030;-76
2021/06/03 07:51:25;;;;;;;6.03;4.22;;;;;;;21.61;50.63;98616.06;4990632;28;20113;-76
2021/06/03 07:53:50;;;;;;;6.35;5.70;;;;;;;21.66;50.01;98613.03;4990878;28;20176;-76
2021/06/03 07:56:16;;;;;;;6.10;5.15;;;;;;;21.50;48.89;98605.72;4973327;28;20446;-76
2021/06/03 07:58:41;;;;;;;8.48;4.82;;;;;;;21.82;48.10;98604.72;4973338;28;20534;-76
2021/06/03 08:01:07;;;;;;;7.80;4.20;;;;;;;22.74;47.29;98607.38;4972905;28;20069;-72
2021/06/03 08:03:33;;;;;;;5.88;4.25;;;;;;;23.06;45.13;98603.38;4991009;28;20076;-74
2021/06/03 08:05:58;;;;;;;5.85;3.50;;;;;;;25.17;41.22;98605.38;4991031;28;20062;-74
2021/06/03 08:08:23;;;;;;;4.63;4.00;;;;;;;24.66;41.14;98602.88;4973445;28;20030;-73
2021/06/03 08:10:49;;;;;;;5.30;4.40;;;;;;;25.49;40.80;98615.13;4972875;28;20093;-73
2021/06/03 08:13:14;;;;;;;8.90;4.63;;;;;;;25.55;39.16;98620.03;4990963;28;20120;-72
2021/06/03 08:15:42;;;;;;;6.63;3.75;;;;;;;24.25;41.54;98603.69;4991081;28;20030;-74
2021/06/03 08:18:09;;;;;;;7.03;4.35;;;;;;;24.58;40.70;98600.31;4990630;28;20022;-73
2021/06/03 08:20:40;;;;;;;5.50;4.50;;;;;;;25.54;39.83;98604.38;4992477;28;20034;-74
2021/06/03 08:23:07;;;;;;;6.60;3.78;;;;;;;25.15;39.39;98597.38;4994193;28;20113;-73
2021/06/03 08:25:33;;;;;;;7.93;4.50;;;;;;;26.32;37.50;98599.00;4994519;28;20081;-73
2021/06/03 08:27:59;;;;;;;5.68;4.55;;;;;;;26.41;37.50;98594.72;4994001;28;20125;-72
2021/06/03 08:30:26;;;;;;;4.85;4.03;;;;;;;26.12;37.39;98594.75;4994536;28;20034;-73
2021/06/03 08:32:52;;;;;;;8.68;3.80;;;;;;;26.19;37.49;98592.84;4993904;28;20089;-73
2021/06/03 08:35:21;;;;;;;8.13;3.92;;;;;;;25.80;37.36;98599.94;4994116;28;20038;-74
2021/06/03 08:37:55;;;;;;;10.15;4.15;;;;;;;25.87;37.38;98600.03;4993614;28;20036;-74
2021/06/03 08:40:28;;;;;;;4.72;3.55;;;;;;;26.77;36.14;98586.66;5009438;28;20455;-73
2021/06/03 08:42:55;;;;;;;6.53;3.50;;;;;;;27.46;36.22;98594.09;5013198;28;20459;-73
2021/06/03 08:45:23;;;;;;;9.98;4.13;;;;;;;27.87;34.25;98593.94;5026995;28;20475;-74
2021/06/03 08:47:50;;;;;;;8.75;4.25;;;;;;;27.86;34.30;98589.50;5009693;28;20033;-74
2021/06/03 08:50:16;;;;;;;6.55;3.33;;;;;;;28.20;33.46;98593.69;5014016;28;20052;-73
2021/06/03 08:52:42;;;;;;;4.72;3.65;;;;;;;28.53;32.66;98582.16;5012338;28;20026;-74
2021/06/03 08:55:14;;;;;;;3.63;3.33;;;;;;;28.17;33.58;98583.25;5013500;28;20026;-74
2021/06/03 08:57:41;;;;;;;5.82;3.00;;;;;;;28.92;32.45;98592.69;5013425;28;20032;-75
2021/06/03 09:00:07;;;;;;;9.77;3.50;;;;;;;29.53;32.13;98595.13;5014215;28;20052;-73
2021/06/03 09:02:33;;;;;;;6.50;3.20;;;;;;;30.44;30.11;98593.25;5013301;28;20030;-74
2021/06/03 09:04:59;;;;;;;6.28;2.97;;;;;;;29.66;30.80;98587.84;5013402;28;20022;-73
2021/06/03 09:07:37;;;;;;;4.13;3.58;;;;;;;28.26;32.76;98577.22;5013331;28;20466;-73
2021/06/03 09:10:25;;;;;;;5.80;2.95;;;;;;;28.45;32.55;98586.13;5013898;28;20076;-83
2021/06/03 09:13:07;;;;;;;7.40;3.33;;;;;;;28.98;32.16;98579.81;4999550;28;20141;-89
2021/06/03 09:15:33;;;;;;;4.00;3.60;;;;;;;29.06;31.14;98578.59;5016870;28;20371;-84
2021/06/03 09:17:58;;;;;;;4.57;3.05;;;;;;;28.38;32.04;98572.03;5016040;28;20033;-86
2021/06/03 09:20:25;;;;;;;4.95;3.42;;;;;;;28.98;32.51;98576.97;4998328;28;20033;-82
2021/06/03 09:22:53;;;;;;;5.10;3.13;;;;;;;29.35;30.49;98583.06;5015053;28;20160;-86
2021/06/03 09:25:31;;;;;;;4.70;3.17;;;;;;;28.55;33.04;98571.28;5016743;28;20044;-87
2021/06/03 09:28:19;;;;;;;4.38;2.95;;;;;;;28.49;32.20;98566.44;5016626;28;20049;-87
2021/06/03 09:31:07;;;;;;;5.22;3.50;;;;;;;28.59;32.42;98566.47;4995756;28;20121;-87
2021/06/03 09:33:35;;;;;;;13.63;3.67;;;;;;;28.27;33.12;98567.59;4978613;28;20026;-89
2021/06/03 09:36:02;;;;;;;5.68;3.28;;;;;;;28.32;32.73;98575.66;4996778;28;20031;-86
2021/06/03 09:38:27;;;;;;;3.85;2.72;;;;;;;29.77;31.59;98574.50;4978825;28;20022;-88
2021/06/03 09:40:53;;;;;;;11.63;3.60;;;;;;;29.30;31.33;98568.53;4996329;28;20037;-88
2021/06/03 09:43:21;;;;;;;9.55;2.95;;;;;;;29.62;30.92;98569.31;4995963;28;20026;-89
2021/06/03 09:46:02;;;;;;;8.63;3.65;;;;;;;28.46;32.47;98570.88;4978957;28;20530;-88
2021/06/03 09:48:40;;;;;;;7.45;4.00;;;;;;;28.81;31.90;98563.72;4980396;28;20018;-90
2021/06/03 09:51:23;;;;;;;6.80;3.20;;;;;;;29.67;31.04;98571.69;5000492;28;20037;-85
2021/06/03 09:53:56;;;;;;;4.82;4.00;;;;;;;29.26;31.29;98562.13;5000797;28;20041;-84
2021/06/03 09:56:28;;;;;;;7.10;3.22;;;;;;;29.81;30.75;98556.75;5001750;28;20042;-86
2021/06/03 09:58:54;;;;;;;5.70;3.33;;;;;;;29.56;30.16;98560.47;4980323;28;20053;-90
2021/06/03 10:01:45;;;;;;;7.80;3.45;;;;;;;29.85;30.73;98549.94;4997023;28;20372;-86
2021/06/03 10:04:13;;;;;;;5.70;4.07;;;;;;;27.87;33.13;98546.94;4980995;28;20037;-88
2021/06/03 10:06:53;;;;;;;6.18;3.58;;;;;;;27.84;33.66;98544.91;4982296;28;20088;-88
2021/06/03 10:09:52;;;;;;;5.18;3.60;;;;;;;28.43;32.05;98549.16;4979713;28;20399;-86
2021/06/03 10:12:31;;;;;;;6.38;3.42;;;;;;;29.76;30.22;98550.31;4975345;28;20920;-88
2021/06/03 10:15:05;;;;;;;8.60;3.58;;;;;;;29.15;30.26;98550.81;4995290;28;20044;-86
2021/06/03 10:17:33;;;;;;;5.43;3.28;;;;;;;28.62;31.26;98547.97;4982513;28;20022;-89
2021/06/03 10:20:05;;;;;;;6.07;3.70;;;;;;;29.63;30.43;98551.19;5006140;28;20095;-89
2021/06/03 10:22:33;;;;;;;6.00;3.10;;;;;;;29.42;30.79;98548.38;4987942;28;20129;-84
2021/06/03 10:25:05;;;;;;;5.15;2.78;;;;;;;30.16;29.25;98543.34;4979230;28;20054;-89
2021/06/03 10:27:56;;;;;;;5.95;3.55;;;;;;;28.00;31.76;98538.94;4999481;28;20379;-90
2021/06/03 10:30:26;;;;;;;5.93;3.33;;;;;;;28.13;31.96;98535.38;4983669;28;20069;-87
2021/06/03 10:32:55;;;;;;;4.70;3.83;;;;;;;26.57;34.72;98525.09;4989757;28;20080;-86
2021/06/03 10:35:25;;;;;;;4.43;3.13;;;;;;;26.74;35.89;98526.47;5011813;28;20042;-86
2021/06/03 10:37:51;;;;;;;4.43;4.00;;;;;;;26.10;35.97;98520.19;4995428;28;20114;-78
2021/06/03 10:40:22;;;;;;;5.70;3.80;;;;;;;26.45;35.57;98525.41;5005333;28;20046;-78
2021/06/03 10:42:49;;;;;;;5.53;3.92;;;;;;;25.90;37.20;98515.97;4996073;28;20124;-81
2021/06/03 10:45:16;;;;;;;10.27;3.33;;;;;;;26.24;36.62;98511.16;5002144;28;20058;-78
2021/06/03 10:47:43;;;;;;;4.13;3.47;;;;;;;26.03;36.61;98514.50;5002728;28;20056;-78
2021/06/03 10:50:13;;;;;;;6.10;3.90;;;;;;;25.30;37.24;98515.16;5000871;28;20068;-79
2021/06/03 10:52:39;;;;;;;5.00;4.50;;;;;;;25.07;38.30;98508.81;4983767;28;20041;-84
2021/06/03 10:55:07;;;;;;;6.13;3.90;;;;;;;25.02;37.94;98506.34;4982775;28;20014;-79
2021/06/03 10:57:45;;;;;;;6.50;3.47;;;;;;;25.39;37.15;98510.06;4982730;28;20101;-78
2021/06/03 11:00:32;;;;;;;4.68;3.63;;;;;;;25.53;36.87;98501.06;4987919;28;20037;-78
2021/06/03 11:03:04;;;;;;;4.45;3.47;;;;;;;25.51;36.72;98501.47;4983751;28;20069;-81
2021/06/03 11:05:41;;;;;;;8.23;2.90;;;;;;;26.21;36.08;98497.91;4983875;28;20038;-80
2021/06/03 11:08:25;;;;;;;4.18;2.78;;;;;;;25.90;37.24;98499.16;5003423;28;20034;-82
2021/06/03 11:10:52;;;;;;;5.50;3.25;;;;;;;25.71;37.56;98495.69;4982165;28;20155;-83
2021/06/03 11:13:23;;;;;;;4.55;3.13;;;;;;;25.43;37.46;98505.34;5001305;28;20034;-83
2021/06/03 11:16:01;;;;;;;3.80;3.20;;;;;;;25.70;36.88;98494.06;4984416;28;20018;-77
2021/06/03 11:18:45;;;;;;;5.03;3.53;;;;;;;25.48;37.10;98504.19;5001744;28;20108;-79
2021/06/03 11:21:32;;;;;;;4.40;3.80;;;;;;;26.04;36.19;98496.50;4982197;28;20085;-85
2021/06/03 11:24:04;;;;;;;5.35;2.83;;;;;;;26.26;35.54;98494.75;4981306;28;20452;-85
2021/06/03 11:26:42;;;;;;;5.30;3.22;;;;;;;27.00;34.77;98500.22;4985147;28;20048;-84
2021/06/03 11:29:17;;;;;;;3.78;2.85;;;;;;;27.40;34.22;98490.84;4978369;28;20126;-84
2021/06/03 11:32:02;;;;;;;4.57;2.25;;;;;;;27.31;34.76;98481.94;4976183;28;20053;-85
2021/06/03 11:34:40;;;;;;;6.60;2.90;;;;;;;27.28;33.95;98480.75;4982267;28;20038;-85
2021/06/03 11:37:43;;;;;;;4.53;2.10;;;;;;;26.95;35.06;98484.53;4977382;28;20037;-86
2021/06/03 11:40:08;;;;;;;4.40;2.80;;;;;;;26.69;35.18;98478.28;5002005;28;20040;-85